Información del aeropuerto LEZG

Información de pista
Pista 12L Longitud 9843 ft Anchura 148 ft
Elevación 823 ft Umbral 0 ft Rumbo 120
Pista 30R Longitud 9843 ft Anchura 148 ft
Elevación 834 ft Umbral 0 ft Rumbo 300
Pista 12R Longitud 12198 ft Anchura 148 ft
Elevación 834 ft Umbral 0 ft Rumbo 120
Pista 30L Longitud 12198 ft Anchura 148 ft
Elevación 863 ft Umbral 0 ft Rumbo 300
Frecuencias del aeropuerto
Tipo APP Nombre APP Frecuencia 119.3 MHZ
Tipo GND Nombre GND Frecuencia 118.1 MHZ
Tipo TWR Nombre TWR Frecuencia 118.1 MHZ
Radioayudas del aeropuerto
Tipo VOR-DME Nombre Zaragoza Frecuencia 113000 KHZ
Tipo NDB Nombre Zaragoza Frecuencia 389 KHZ
Tipo TACAN Nombre Zaragoza Frecuencia 133700 KHZ
Tipo NDB Nombre Zaragoza Frecuencia 348 KHZ
Información meteorológica del aeropuerto y NOTAM
ADDS - METARS form results

(1425 UTC 24 November 2020)
Data provider http://aviationweather.gov/metar/data/
 
METAR text: LEZG 241400Z 09008KT CAVOK 12/05 Q1020
Conditions at: LEZG (ZARAGOZA (MIL/CI, ES) observed 1400 UTC 24 November 2020
Temperature: 12.0°C (54°F)
Dewpoint: 5.0°C (41°F) [RH = 62%]
Pressure (altimeter): 30.12 inches Hg (1020.0 mb)
Winds: from the E (90 degrees) at 9 MPH (8 knots; 4.1 m/s)
Visibility: 6 or more miles (10+ km)
Ceiling: ceiling and visibility are OK
Clouds: unknown
Weather: no significant weather observed at this time

METAR text: LEZG 241330Z 10008KT CAVOK 12/05 Q1021
Conditions at: LEZG (ZARAGOZA (MIL/CI, ES) observed 1330 UTC 24 November 2020
Temperature: 12.0°C (54°F)
Dewpoint: 5.0°C (41°F) [RH = 62%]
Pressure (altimeter): 30.15 inches Hg (1021.0 mb)
Winds: from the E (100 degrees) at 9 MPH (8 knots; 4.1 m/s)
Visibility: 6 or more miles (10+ km)
Ceiling: ceiling and visibility are OK
Clouds: unknown
Weather: no significant weather observed at this time

Forecast for: LEZG (ZARAGOZA (MIL/CI, ES)
Text: TAF LEZG 241100Z 2412/2512 10005KT CAVOK TX13/2413Z TN04/2507Z
Forecast period: 1200 UTC 24 November 2020 to 0800 UTC 25 November 2020
Forecast type: FROM: standard forecast or significant change
Winds: from the E (100 degrees) at 6 MPH (5 knots; 2.6 m/s)
Visibility: 6 or more miles (10+ km)
Ceiling: unknown
Clouds: missing
Weather: no significant weather forecast for this period
Text: TEMPO 2412/2416 10010KT
Forecast period: 1200 to 1600 UTC 24 November 2020
Forecast type: TEMPORARY: The following changes expected for less than half the time period
Winds: from the E (100 degrees) at 12 MPH (10 knots; 5.1 m/s)
Visibility: missing
Ceiling: unknown
Clouds: missing
Weather: no significant weather forecast for this period
Text: BECMG 2508/2510 10010KT
Forecast period: 0800 to 1200 UTC 25 November 2020
Forecast type: BECOMING: Conditions expected to become as follows by 1000 UTC 25 November 2020
Winds: from the E (100 degrees) at 12 MPH (10 knots; 5.1 m/s)
Visibility: 6 or more miles (10+ km)
Ceiling: unknown
Clouds: missing
Weather: no significant weather forecast for this period